sensor_id;sensor_type;location;lat;lon;timestamp;temperature;humidity
51305;HTU21D;37392;50.964;6.952;2022-11-23T00:03:46;9.03;99.83
51305;HTU21D;37392;50.964;6.952;2022-11-23T00:06:13;9.03;99.84
51305;HTU21D;37392;50.964;6.952;2022-11-23T00:08:39;9.03;99.93
51305;HTU21D;37392;50.964;6.952;2022-11-23T00:11:05;9.02;99.73
51305;HTU21D;37392;50.964;6.952;2022-11-23T00:13:31;9.02;99.91
51305;HTU21D;37392;50.964;6.952;2022-11-23T00:15:56;9.02;99.88
51305;HTU21D;37392;50.964;6.952;2022-11-23T00:18:22;9.01;99.62
51305;HTU21D;37392;50.964;6.952;2022-11-23T00:20:47;9.03;99.39
51305;HTU21D;37392;50.964;6.952;2022-11-23T00:23:13;9.06;99.35
51305;HTU21D;37392;50.964;6.952;2022-11-23T00:25:38;9.04;99.22
51305;HTU21D;37392;50.964;6.952;2022-11-23T00:28:04;9.08;99.10
51305;HTU21D;37392;50.964;6.952;2022-11-23T00:30:30;9.08;98.95
51305;HTU21D;37392;50.964;6.952;2022-11-23T00:32:55;9.10;98.84
51305;HTU21D;37392;50.964;6.952;2022-11-23T00:35:22;9.11;98.84
51305;HTU21D;37392;50.964;6.952;2022-11-23T00:37:47;9.14;98.85
51305;HTU21D;37392;50.964;6.952;2022-11-23T00:40:13;9.12;98.80
51305;HTU21D;37392;50.964;6.952;2022-11-23T00:42:39;9.12;98.63
51305;HTU21D;37392;50.964;6.952;2022-11-23T00:45:05;9.10;98.91
51305;HTU21D;37392;50.964;6.952;2022-11-23T00:47:31;9.11;98.89
51305;HTU21D;37392;50.964;6.952;2022-11-23T00:49:56;9.05;99.10
51305;HTU21D;37392;50.964;6.952;2022-11-23T00:52:22;9.07;99.39
51305;HTU21D;37392;50.964;6.952;2022-11-23T00:54:48;9.07;99.21
51305;HTU21D;37392;50.964;6.952;2022-11-23T00:57:13;9.09;99.06
51305;HTU21D;37392;50.964;6.952;2022-11-23T00:59:39;9.15;98.79
51305;HTU21D;37392;50.964;6.952;2022-11-23T01:02:04;9.15;98.59
51305;HTU21D;37392;50.964;6.952;2022-11-23T01:04:30;9.12;98.70
51305;HTU21D;37392;50.964;6.952;2022-11-23T01:06:55;9.16;98.64
51305;HTU21D;37392;50.964;6.952;2022-11-23T01:09:24;9.15;98.51
51305;HTU21D;37392;50.964;6.952;2022-11-23T01:11:52;9.16;98.31
51305;HTU21D;37392;50.964;6.952;2022-11-23T01:14:19;9.17;98.31
51305;HTU21D;37392;50.964;6.952;2022-11-23T01:16:45;9.12;98.30
51305;HTU21D;37392;50.964;6.952;2022-11-23T01:19:13;9.15;98.40
51305;HTU21D;37392;50.964;6.952;2022-11-23T01:21:40;9.16;98.42
51305;HTU21D;37392;50.964;6.952;2022-11-23T01:24:09;9.18;98.43
51305;HTU21D;37392;50.964;6.952;2022-11-23T01:26:40;9.18;98.08
51305;HTU21D;37392;50.964;6.952;2022-11-23T01:29:06;9.20;98.08
51305;HTU21D;37392;50.964;6.952;2022-11-23T01:31:32;9.24;97.82
51305;HTU21D;37392;50.964;6.952;2022-11-23T01:33:59;9.27;97.63
51305;HTU21D;37392;50.964;6.952;2022-11-23T01:36:28;9.27;97.78
51305;HTU21D;37392;50.964;6.952;2022-11-23T01:38:59;9.27;98.00
51305;HTU21D;37392;50.964;6.952;2022-11-23T01:41:27;9.23;98.11
51305;HTU21D;37392;50.964;6.952;2022-11-23T01:43:55;9.26;98.00
51305;HTU21D;37392;50.964;6.952;2022-11-23T01:46:21;9.22;98.08
51305;HTU21D;37392;50.964;6.952;2022-11-23T01:49:06;9.26;97.97
51305;HTU21D;37392;50.964;6.952;2022-11-23T01:51:37;9.24;97.78
51305;HTU21D;37392;50.964;6.952;2022-11-23T01:54:11;9.23;98.00
51305;HTU21D;37392;50.964;6.952;2022-11-23T01:56:44;9.27;97.74
51305;HTU21D;37392;50.964;6.952;2022-11-23T01:59:14;9.29;97.65
51305;HTU21D;37392;50.964;6.952;2022-11-23T02:01:42;9.29;97.61
51305;HTU21D;37392;50.964;6.952;2022-11-23T02:04:11;9.30;97.55
51305;HTU21D;37392;50.964;6.952;2022-11-23T02:06:42;9.36;97.09
51305;HTU21D;37392;50.964;6.952;2022-11-23T02:09:08;9.39;97.03
51305;HTU21D;37392;50.964;6.952;2022-11-23T02:11:33;9.36;97.29
51305;HTU21D;37392;50.964;6.952;2022-11-23T02:13:59;9.36;97.14
51305;HTU21D;37392;50.964;6.952;2022-11-23T02:16:25;9.39;97.00
51305;HTU21D;37392;50.964;6.952;2022-11-23T02:18:51;9.38;97.29
51305;HTU21D;37392;50.964;6.952;2022-11-23T02:21:17;9.38;98.08
51305;HTU21D;37392;50.964;6.952;2022-11-23T02:26:21;9.31;98.25
51305;HTU21D;37392;50.964;6.952;2022-11-23T02:31:33;9.31;97.66
51305;HTU21D;37392;50.964;6.952;2022-11-23T02:33:59;9.35;97.31
51305;HTU21D;37392;50.964;6.952;2022-11-23T02:36:34;9.36;97.19
51305;HTU21D;37392;50.964;6.952;2022-11-23T02:39:40;9.33;97.46
51305;HTU21D;37392;50.964;6.952;2022-11-23T02:42:03;9.30;97.49
51305;HTU21D;37392;50.964;6.952;2022-11-23T02:47:40;9.32;97.40
51305;HTU21D;37392;50.964;6.952;2022-11-23T02:50:06;9.32;97.52
51305;HTU21D;37392;50.964;6.952;2022-11-23T02:52:32;9.31;97.30
51305;HTU21D;37392;50.964;6.952;2022-11-23T02:54:57;9.36;97.04
51305;HTU21D;37392;50.964;6.952;2022-11-23T02:57:23;9.36;97.04
51305;HTU21D;37392;50.964;6.952;2022-11-23T02:59:48;9.39;96.68
51305;HTU21D;37392;50.964;6.952;2022-11-23T03:02:14;9.40;96.25
51305;HTU21D;37392;50.964;6.952;2022-11-23T03:04:39;9.40;96.36
51305;HTU21D;37392;50.964;6.952;2022-11-23T03:07:05;9.37;96.38
51305;HTU21D;37392;50.964;6.952;2022-11-23T03:09:30;9.39;96.36
51305;HTU21D;37392;50.964;6.952;2022-11-23T03:11:56;9.45;96.28
51305;HTU21D;37392;50.964;6.952;2022-11-23T03:14:22;9.41;96.19
51305;HTU21D;37392;50.964;6.952;2022-11-23T03:16:47;9.41;96.45
51305;HTU21D;37392;50.964;6.952;2022-11-23T03:19:13;9.41;96.22
51305;HTU21D;37392;50.964;6.952;2022-11-23T03:21:38;9.41;96.20
51305;HTU21D;37392;50.964;6.952;2022-11-23T03:24:04;9.42;96.30
51305;HTU21D;37392;50.964;6.952;2022-11-23T03:26:30;9.44;96.59
51305;HTU21D;37392;50.964;6.952;2022-11-23T03:28:55;9.40;96.43
51305;HTU21D;37392;50.964;6.952;2022-11-23T03:31:21;9.40;96.38
51305;HTU21D;37392;50.964;6.952;2022-11-23T03:33:46;9.36;96.52
51305;HTU21D;37392;50.964;6.952;2022-11-23T03:36:12;9.36;96.51
51305;HTU21D;37392;50.964;6.952;2022-11-23T03:38:37;9.38;96.38
51305;HTU21D;37392;50.964;6.952;2022-11-23T03:41:03;9.40;96.48
51305;HTU21D;37392;50.964;6.952;2022-11-23T03:43:29;9.40;96.49
51305;HTU21D;37392;50.964;6.952;2022-11-23T03:45:54;9.37;96.48
51305;HTU21D;37392;50.964;6.952;2022-11-23T03:48:20;9.38;96.49
51305;HTU21D;37392;50.964;6.952;2022-11-23T03:50:45;9.37;96.39
51305;HTU21D;37392;50.964;6.952;2022-11-23T03:53:11;9.35;96.62
51305;HTU21D;37392;50.964;6.952;2022-11-23T03:55:37;9.32;96.58
51305;HTU21D;37392;50.964;6.952;2022-11-23T03:58:03;9.27;96.91
51305;HTU21D;37392;50.964;6.952;2022-11-23T04:00:30;9.25;96.98
51305;HTU21D;37392;50.964;6.952;2022-11-23T04:02:56;9.32;96.52
51305;HTU21D;37392;50.964;6.952;2022-11-23T04:05:21;9.29;96.60
51305;HTU21D;37392;50.964;6.952;2022-11-23T04:07:48;9.32;96.42
51305;HTU21D;37392;50.964;6.952;2022-11-23T04:10:15;9.30;96.43
51305;HTU21D;37392;50.964;6.952;2022-11-23T04:12:41;9.36;96.25
51305;HTU21D;37392;50.964;6.952;2022-11-23T04:15:07;9.36;96.05
51305;HTU21D;37392;50.964;6.952;2022-11-23T04:17:34;9.37;96.04
51305;HTU21D;37392;50.964;6.952;2022-11-23T04:20:00;9.37;95.93
51305;HTU21D;37392;50.964;6.952;2022-11-23T04:22:25;9.34;95.84
51305;HTU21D;37392;50.964;6.952;2022-11-23T04:24:51;9.37;95.78
51305;HTU21D;37392;50.964;6.952;2022-11-23T04:27:16;9.37;95.72
51305;HTU21D;37392;50.964;6.952;2022-11-23T04:29:42;9.38;95.77
51305;HTU21D;37392;50.964;6.952;2022-11-23T04:32:08;9.40;95.49
51305;HTU21D;37392;50.964;6.952;2022-11-23T04:34:33;9.40;95.43
51305;HTU21D;37392;50.964;6.952;2022-11-23T04:36:59;9.45;95.29
51305;HTU21D;37392;50.964;6.952;2022-11-23T04:39:24;9.42;95.32
51305;HTU21D;37392;50.964;6.952;2022-11-23T04:41:50;9.41;95.40
51305;HTU21D;37392;50.964;6.952;2022-11-23T04:44:15;9.42;95.62
51305;HTU21D;37392;50.964;6.952;2022-11-23T04:46:41;9.42;95.55
51305;HTU21D;37392;50.964;6.952;2022-11-23T04:49:08;9.40;95.59
51305;HTU21D;37392;50.964;6.952;2022-11-23T04:51:34;9.39;95.63
51305;HTU21D;37392;50.964;6.952;2022-11-23T04:53:59;9.39;95.70
51305;HTU21D;37392;50.964;6.952;2022-11-23T04:56:25;9.40;95.81
51305;HTU21D;37392;50.964;6.952;2022-11-23T04:58:50;9.36;96.33
51305;HTU21D;37392;50.964;6.952;2022-11-23T05:01:16;9.34;96.47
51305;HTU21D;37392;50.964;6.952;2022-11-23T05:03:41;9.37;96.65
51305;HTU21D;37392;50.964;6.952;2022-11-23T05:06:08;9.36;96.49
51305;HTU21D;37392;50.964;6.952;2022-11-23T05:08:34;9.37;96.72
51305;HTU21D;37392;50.964;6.952;2022-11-23T05:10:59;9.34;97.94
51305;HTU21D;37392;50.964;6.952;2022-11-23T05:13:25;9.27;98.71
51305;HTU21D;37392;50.964;6.952;2022-11-23T05:15:50;9.22;99.06
51305;HTU21D;37392;50.964;6.952;2022-11-23T05:18:16;9.16;99.94
51305;HTU21D;37392;50.964;6.952;2022-11-23T05:20:41;9.09;100.16
51305;HTU21D;37392;50.964;6.952;2022-11-23T05:23:07;9.09;101.90
51305;HTU21D;37392;50.964;6.952;2022-11-23T05:25:33;9.00;103.75
51305;HTU21D;37392;50.964;6.952;2022-11-23T05:27:59;8.91;104.76
51305;HTU21D;37392;50.964;6.952;2022-11-23T05:30:25;8.85;105.08
51305;HTU21D;37392;50.964;6.952;2022-11-23T05:32:50;8.73;105.82
51305;HTU21D;37392;50.964;6.952;2022-11-23T05:35:16;8.70;106.47
51305;HTU21D;37392;50.964;6.952;2022-11-23T05:37:41;8.61;106.39
51305;HTU21D;37392;50.964;6.952;2022-11-23T05:40:08;8.58;106.88
51305;HTU21D;37392;50.964;6.952;2022-11-23T05:42:35;8.55;106.98
51305;HTU21D;37392;50.964;6.952;2022-11-23T05:45:00;8.58;106.24
51305;HTU21D;37392;50.964;6.952;2022-11-23T05:47:26;8.60;106.32
51305;HTU21D;37392;50.964;6.952;2022-11-23T05:49:52;8.61;106.02
51305;HTU21D;37392;50.964;6.952;2022-11-23T05:52:17;8.63;105.35
51305;HTU21D;37392;50.964;6.952;2022-11-23T05:54:43;8.65;104.69
51305;HTU21D;37392;50.964;6.952;2022-11-23T05:57:09;8.74;103.66
51305;HTU21D;37392;50.964;6.952;2022-11-23T05:59:35;8.72;103.55
51305;HTU21D;37392;50.964;6.952;2022-11-23T06:02:00;8.80;102.87
51305;HTU21D;37392;50.964;6.952;2022-11-23T06:04:26;8.83;102.41
51305;HTU21D;37392;50.964;6.952;2022-11-23T06:06:52;8.85;101.73
51305;HTU21D;37392;50.964;6.952;2022-11-23T06:09:25;8.86;101.77
51305;HTU21D;37392;50.964;6.952;2022-11-23T06:11:52;8.86;101.33
51305;HTU21D;37392;50.964;6.952;2022-11-23T06:14:17;8.87;101.15
51305;HTU21D;37392;50.964;6.952;2022-11-23T06:16:43;8.92;100.45
51305;HTU21D;37392;50.964;6.952;2022-11-23T06:19:09;8.90;100.12
51305;HTU21D;37392;50.964;6.952;2022-11-23T06:21:34;8.94;99.76
51305;HTU21D;37392;50.964;6.952;2022-11-23T06:24:00;8.97;99.12
51305;HTU21D;37392;50.964;6.952;2022-11-23T06:26:25;9.00;98.74
51305;HTU21D;37392;50.964;6.952;2022-11-23T06:28:51;9.03;98.59
51305;HTU21D;37392;50.964;6.952;2022-11-23T06:31:16;8.98;98.43
51305;HTU21D;37392;50.964;6.952;2022-11-23T06:33:42;8.98;98.52
51305;HTU21D;37392;50.964;6.952;2022-11-23T06:36:09;8.98;98.23
51305;HTU21D;37392;50.964;6.952;2022-11-23T06:38:35;8.96;98.16
51305;HTU21D;37392;50.964;6.952;2022-11-23T06:41:01;8.95;98.08
51305;HTU21D;37392;50.964;6.952;2022-11-23T06:43:28;8.96;97.93
51305;HTU21D;37392;50.964;6.952;2022-11-23T06:45:54;8.92;97.54
51305;HTU21D;37392;50.964;6.952;2022-11-23T06:48:21;8.95;97.36
51305;HTU21D;37392;50.964;6.952;2022-11-23T06:50:47;8.95;96.62
51305;HTU21D;37392;50.964;6.952;2022-11-23T06:53:12;8.94;96.75
51305;HTU21D;37392;50.964;6.952;2022-11-23T06:55:38;8.93;96.55
51305;HTU21D;37392;50.964;6.952;2022-11-23T06:58:04;8.85;96.70
51305;HTU21D;37392;50.964;6.952;2022-11-23T07:00:31;8.85;96.35
51305;HTU21D;37392;50.964;6.952;2022-11-23T07:02:57;8.77;96.57
51305;HTU21D;37392;50.964;6.952;2022-11-23T07:05:25;8.74;96.43
51305;HTU21D;37392;50.964;6.952;2022-11-23T07:07:50;8.71;96.44
51305;HTU21D;37392;50.964;6.952;2022-11-23T07:10:16;8.68;96.42
51305;HTU21D;37392;50.964;6.952;2022-11-23T07:12:42;8.58;96.71
51305;HTU21D;37392;50.964;6.952;2022-11-23T07:15:08;8.49;96.99
51305;HTU21D;37392;50.964;6.952;2022-11-23T07:17:40;8.36;97.58
51305;HTU21D;37392;50.964;6.952;2022-11-23T07:20:08;8.32;97.50
51305;HTU21D;37392;50.964;6.952;2022-11-23T07:22:35;8.31;97.43
51305;HTU21D;37392;50.964;6.952;2022-11-23T07:25:01;8.35;97.29
51305;HTU21D;37392;50.964;6.952;2022-11-23T07:27:27;8.34;97.50
51305;HTU21D;37392;50.964;6.952;2022-11-23T07:29:53;8.33;97.87
51305;HTU21D;37392;50.964;6.952;2022-11-23T07:32:19;8.41;97.72
51305;HTU21D;37392;50.964;6.952;2022-11-23T07:34:44;8.53;97.16
51305;HTU21D;37392;50.964;6.952;2022-11-23T07:37:10;8.81;96.40
51305;HTU21D;37392;50.964;6.952;2022-11-23T07:39:35;9.09;95.17
51305;HTU21D;37392;50.964;6.952;2022-11-23T07:42:01;9.29;94.11
51305;HTU21D;37392;50.964;6.952;2022-11-23T07:44:26;9.50;92.68
51305;HTU21D;37392;50.964;6.952;2022-11-23T07:46:52;9.47;91.87
51305;HTU21D;37392;50.964;6.952;2022-11-23T07:49:18;9.39;91.69
51305;HTU21D;37392;50.964;6.952;2022-11-23T07:51:44;9.26;92.03
51305;HTU21D;37392;50.964;6.952;2022-11-23T07:54:10;9.20;92.44
51305;HTU21D;37392;50.964;6.952;2022-11-23T07:56:36;9.16;92.61
51305;HTU21D;37392;50.964;6.952;2022-11-23T07:59:01;9.09;93.00
51305;HTU21D;37392;50.964;6.952;2022-11-23T08:01:27;9.04;93.74
51305;HTU21D;37392;50.964;6.952;2022-11-23T08:03:53;9.18;94.52
51305;HTU21D;37392;50.964;6.952;2022-11-23T08:06:18;9.48;94.51
51305;HTU21D;37392;50.964;6.952;2022-11-23T08:08:44;9.81;93.41
51305;HTU21D;37392;50.964;6.952;2022-11-23T08:11:10;10.20;91.77
51305;HTU21D;37392;50.964;6.952;2022-11-23T08:13:39;10.46;90.93
51305;HTU21D;37392;50.964;6.952;2022-11-23T08:16:05;10.70;90.16
51305;HTU21D;37392;50.964;6.952;2022-11-23T08:18:31;10.95;88.64
51305;HTU21D;37392;50.964;6.952;2022-11-23T08:21:00;11.15;87.83
51305;HTU21D;37392;50.964;6.952;2022-11-23T08:23:26;11.23;87.25
51305;HTU21D;37392;50.964;6.952;2022-11-23T08:25:52;11.33;86.25
51305;HTU21D;37392;50.964;6.952;2022-11-23T08:28:18;11.45;86.20
51305;HTU21D;37392;50.964;6.952;2022-11-23T08:30:44;11.54;85.55
51305;HTU21D;37392;50.964;6.952;2022-11-23T08:33:11;11.68;85.23
51305;HTU21D;37392;50.964;6.952;2022-11-23T08:35:38;11.76;84.62
51305;HTU21D;37392;50.964;6.952;2022-11-23T08:38:06;11.90;84.05
51305;HTU21D;37392;50.964;6.952;2022-11-23T08:40:34;11.90;83.85
51305;HTU21D;37392;50.964;6.952;2022-11-23T08:43:00;12.15;83.44
51305;HTU21D;37392;50.964;6.952;2022-11-23T08:45:27;12.25;82.79
51305;HTU21D;37392;50.964;6.952;2022-11-23T08:47:53;12.23;82.46
51305;HTU21D;37392;50.964;6.952;2022-11-23T08:50:20;12.41;82.20
51305;HTU21D;37392;50.964;6.952;2022-11-23T08:52:46;12.63;81.40
51305;HTU21D;37392;50.964;6.952;2022-11-23T08:55:11;12.73;80.37
51305;HTU21D;37392;50.964;6.952;2022-11-23T08:57:38;12.72;79.93
51305;HTU21D;37392;50.964;6.952;2022-11-23T09:00:04;12.69;79.84
51305;HTU21D;37392;50.964;6.952;2022-11-23T09:02:31;12.87;79.48
51305;HTU21D;37392;50.964;6.952;2022-11-23T09:04:56;12.99;78.37
51305;HTU21D;37392;50.964;6.952;2022-11-23T09:07:22;13.07;77.85
51305;HTU21D;37392;50.964;6.952;2022-11-23T09:09:48;13.25;77.11
51305;HTU21D;37392;50.964;6.952;2022-11-23T09:12:13;13.26;76.79
51305;HTU21D;37392;50.964;6.952;2022-11-23T09:14:39;13.00;76.55
51305;HTU21D;37392;50.964;6.952;2022-11-23T09:17:05;12.78;77.42
51305;HTU21D;37392;50.964;6.952;2022-11-23T09:19:31;12.46;78.47
51305;HTU21D;37392;50.964;6.952;2022-11-23T09:21:56;12.00;80.07
51305;HTU21D;37392;50.964;6.952;2022-11-23T09:24:22;11.62;80.94
51305;HTU21D;37392;50.964;6.952;2022-11-23T09:26:48;11.47;82.23
51305;HTU21D;37392;50.964;6.952;2022-11-23T09:29:13;11.42;82.29
51305;HTU21D;37392;50.964;6.952;2022-11-23T09:31:39;11.46;82.24
51305;HTU21D;37392;50.964;6.952;2022-11-23T09:34:05;11.44;82.17
51305;HTU21D;37392;50.964;6.952;2022-11-23T09:36:31;11.43;82.19
51305;HTU21D;37392;50.964;6.952;2022-11-23T09:38:57;11.34;80.67
51305;HTU21D;37392;50.964;6.952;2022-11-23T09:50:26;11.47;77.43
51305;HTU21D;37392;50.964;6.952;2022-11-23T09:52:54;11.32;78.21
51305;HTU21D;37392;50.964;6.952;2022-11-23T09:55:23;11.30;78.17
51305;HTU21D;37392;50.964;6.952;2022-11-23T09:58:21;11.28;78.56
51305;HTU21D;37392;50.964;6.952;2022-11-23T10:03:15;11.49;77.60
51305;HTU21D;37392;50.964;6.952;2022-11-23T10:06:20;11.49;77.04
51305;HTU21D;37392;50.964;6.952;2022-11-23T10:18:01;11.25;77.81
51305;HTU21D;37392;50.964;6.952;2022-11-23T10:25:00;11.23;78.51
51305;HTU21D;37392;50.964;6.952;2022-11-23T10:26:57;11.23;78.39
51305;HTU21D;37392;50.964;6.952;2022-11-23T10:31:56;11.18;78.68
51305;HTU21D;37392;50.964;6.952;2022-11-23T10:34:41;11.17;78.09
51305;HTU21D;37392;50.964;6.952;2022-11-23T10:37:47;11.20;78.03
51305;HTU21D;37392;50.964;6.952;2022-11-23T10:40:19;11.28;77.23
51305;HTU21D;37392;50.964;6.952;2022-11-23T10:42:52;11.28;76.44
51305;HTU21D;37392;50.964;6.952;2022-11-23T10:45:25;11.49;76.20
51305;HTU21D;37392;50.964;6.952;2022-11-23T10:47:54;11.73;75.46
51305;HTU21D;37392;50.964;6.952;2022-11-23T10:55:32;11.23;76.86
51305;HTU21D;37392;50.964;6.952;2022-11-23T10:58:41;10.81;78.64
51305;HTU21D;37392;50.964;6.952;2022-11-23T11:01:19;10.71;79.41
51305;HTU21D;37392;50.964;6.952;2022-11-23T11:03:50;10.67;78.99
51305;HTU21D;37392;50.964;6.952;2022-11-23T11:06:27;10.67;78.70
51305;HTU21D;37392;50.964;6.952;2022-11-23T11:09:02;10.64;78.65
51305;HTU21D;37392;50.964;6.952;2022-11-23T11:11:32;10.64;79.00
51305;HTU21D;37392;50.964;6.952;2022-11-23T11:16:50;10.64;79.48
51305;HTU21D;37392;50.964;6.952;2022-11-23T11:21:57;10.86;78.70
51305;HTU21D;37392;50.964;6.952;2022-11-23T11:24:32;10.97;78.71
51305;HTU21D;37392;50.964;6.952;2022-11-23T11:27:23;11.15;78.32
51305;HTU21D;37392;50.964;6.952;2022-11-23T11:29:51;11.32;77.52
51305;HTU21D;37392;50.964;6.952;2022-11-23T11:32:25;11.36;76.79
51305;HTU21D;37392;50.964;6.952;2022-11-23T11:35:30;11.40;76.46
51305;HTU21D;37392;50.964;6.952;2022-11-23T11:41:01;11.37;76.62
51305;HTU21D;37392;50.964;6.952;2022-11-23T11:43:46;11.37;76.77
51305;HTU21D;37392;50.964;6.952;2022-11-23T11:46:27;11.42;77.15
51305;HTU21D;37392;50.964;6.952;2022-11-23T11:51:50;11.42;77.56
51305;HTU21D;37392;50.964;6.952;2022-11-23T11:54:31;11.48;77.60
51305;HTU21D;37392;50.964;6.952;2022-11-23T11:57:04;11.49;77.84
51305;HTU21D;37392;50.964;6.952;2022-11-23T11:59:36;11.56;77.37
51305;HTU21D;37392;50.964;6.952;2022-11-23T12:02:19;11.63;77.15
51305;HTU21D;37392;50.964;6.952;2022-11-23T12:04:59;11.64;77.24
51305;HTU21D;37392;50.964;6.952;2022-11-23T12:10:55;11.61;77.81
51305;HTU21D;37392;50.964;6.952;2022-11-23T12:13:28;11.62;77.66
51305;HTU21D;37392;50.964;6.952;2022-11-23T12:16:29;11.60;77.98
51305;HTU21D;37392;50.964;6.952;2022-11-23T12:19:28;11.79;77.92
51305;HTU21D;37392;50.964;6.952;2022-11-23T12:25:26;11.84;77.12
51305;HTU21D;37392;50.964;6.952;2022-11-23T12:39:49;11.56;75.40
51305;HTU21D;37392;50.964;6.952;2022-11-23T12:42:43;11.41;75.44
51305;HTU21D;37392;50.964;6.952;2022-11-23T12:45:38;11.49;75.62
51305;HTU21D;37392;50.964;6.952;2022-11-23T12:57:02;11.37;76.89
51305;HTU21D;37392;50.964;6.952;2022-11-23T12:59:40;11.31;76.63
51305;HTU21D;37392;50.964;6.952;2022-11-23T13:11:11;11.03;77.84
51305;HTU21D;37392;50.964;6.952;2022-11-23T13:16:38;10.83;78.78
51305;HTU21D;37392;50.964;6.952;2022-11-23T13:22:30;10.65;79.77
51305;HTU21D;37392;50.964;6.952;2022-11-23T13:25:01;10.58;80.01
51305;HTU21D;37392;50.964;6.952;2022-11-23T13:30:32;10.42;80.97
51305;HTU21D;37392;50.964;6.952;2022-11-23T13:33:00;10.33;81.42
51305;HTU21D;37392;50.964;6.952;2022-11-23T13:40:24;10.28;81.34
51305;HTU21D;37392;50.964;6.952;2022-11-23T13:42:57;10.30;81.64
51305;HTU21D;37392;50.964;6.952;2022-11-23T13:45:25;10.27;81.66
51305;HTU21D;37392;50.964;6.952;2022-11-23T13:48:37;10.29;81.59
51305;HTU21D;37392;50.964;6.952;2022-11-23T13:53:28;10.23;81.86
51305;HTU21D;37392;50.964;6.952;2022-11-23T13:58:52;10.22;81.08
51305;HTU21D;37392;50.964;6.952;2022-11-23T14:04:22;10.12;80.72
51305;HTU21D;37392;50.964;6.952;2022-11-23T14:06:50;10.14;80.49
51305;HTU21D;37392;50.964;6.952;2022-11-23T14:09:28;10.13;80.78
51305;HTU21D;37392;50.964;6.952;2022-11-23T14:17:16;10.03;81.17
51305;HTU21D;37392;50.964;6.952;2022-11-23T14:22:22;10.04;81.52
51305;HTU21D;37392;50.964;6.952;2022-11-23T14:25:41;10.03;81.70
51305;HTU21D;37392;50.964;6.952;2022-11-23T14:41:08;9.93;82.56
51305;HTU21D;37392;50.964;6.952;2022-11-23T14:43:39;9.96;82.64
51305;HTU21D;37392;50.964;6.952;2022-11-23T14:46:12;9.97;82.68
51305;HTU21D;37392;50.964;6.952;2022-11-23T14:48:48;10.01;82.75
51305;HTU21D;37392;50.964;6.952;2022-11-23T14:51:18;10.04;82.69
51305;HTU21D;37392;50.964;6.952;2022-11-23T14:53:52;10.16;82.52
51305;HTU21D;37392;50.964;6.952;2022-11-23T14:56:41;10.21;82.51
51305;HTU21D;37392;50.964;6.952;2022-11-23T15:02:00;10.28;82.17
51305;HTU21D;37392;50.964;6.952;2022-11-23T15:04:29;10.29;82.01
51305;HTU21D;37392;50.964;6.952;2022-11-23T15:07:16;10.30;81.91
51305;HTU21D;37392;50.964;6.952;2022-11-23T15:10:06;10.30;82.21
51305;HTU21D;37392;50.964;6.952;2022-11-23T15:12:45;10.22;84.77
51305;HTU21D;37392;50.964;6.952;2022-11-23T15:15:22;10.06;89.56
51305;HTU21D;37392;50.964;6.952;2022-11-23T15:17:57;9.86;90.47
51305;HTU21D;37392;50.964;6.952;2022-11-23T15:20:27;9.83;89.08
51305;HTU21D;37392;50.964;6.952;2022-11-23T15:23:00;9.76;92.08
51305;HTU21D;37392;50.964;6.952;2022-11-23T15:25:26;9.60;93.19
51305;HTU21D;37392;50.964;6.952;2022-11-23T15:27:55;9.40;96.27
51305;HTU21D;37392;50.964;6.952;2022-11-23T15:30:27;9.29;96.46
51305;HTU21D;37392;50.964;6.952;2022-11-23T15:32:58;9.18;98.71
51305;HTU21D;37392;50.964;6.952;2022-11-23T15:35:28;9.04;100.36
51305;HTU21D;37392;50.964;6.952;2022-11-23T15:37:58;8.92;100.60
51305;HTU21D;37392;50.964;6.952;2022-11-23T15:40:26;8.80;101.48
51305;HTU21D;37392;50.964;6.952;2022-11-23T15:42:57;8.81;101.54
51305;HTU21D;37392;50.964;6.952;2022-11-23T15:48:53;8.60;104.96
51305;HTU21D;37392;50.964;6.952;2022-11-23T15:51:35;8.50;107.05
51305;HTU21D;37392;50.964;6.952;2022-11-23T15:54:03;8.39;109.50
51305;HTU21D;37392;50.964;6.952;2022-11-23T15:58:59;8.22;112.23
51305;HTU21D;37392;50.964;6.952;2022-11-23T16:01:27;8.16;112.58
51305;HTU21D;37392;50.964;6.952;2022-11-23T16:03:56;8.05;114.51
51305;HTU21D;37392;50.964;6.952;2022-11-23T16:09:01;7.97;115.91
51305;HTU21D;37392;50.964;6.952;2022-11-23T16:11:28;7.94;117.42
51305;HTU21D;37392;50.964;6.952;2022-11-23T16:16:49;7.93;118.40
51305;HTU21D;37392;50.964;6.952;2022-11-23T16:19:29;7.88;118.90
51305;HTU21D;37392;50.964;6.952;2022-11-23T16:21:56;7.90;-5.95
51305;HTU21D;37392;50.964;6.952;2022-11-23T16:24:25;7.87;118.47
51305;HTU21D;37392;50.964;6.952;2022-11-23T16:26:51;7.85;-5.57
51305;HTU21D;37392;50.964;6.952;2022-11-23T16:29:38;7.88;-5.69
51305;HTU21D;37392;50.964;6.952;2022-11-23T16:32:03;7.87;-5.07
51305;HTU21D;37392;50.964;6.952;2022-11-23T16:34:31;7.88;-4.63
51305;HTU21D;37392;50.964;6.952;2022-11-23T16:36:57;7.93;-4.40
51305;HTU21D;37392;50.964;6.952;2022-11-23T16:39:23;7.96;-5.69
51305;HTU21D;37392;50.964;6.952;2022-11-23T16:41:52;7.93;-5.44
51305;HTU21D;37392;50.964;6.952;2022-11-23T16:44:17;7.94;-5.08
51305;HTU21D;37392;50.964;6.952;2022-11-23T16:46:43;7.99;-5.11
51305;HTU21D;37392;50.964;6.952;2022-11-23T16:49:20;7.98;-5.47
51305;HTU21D;37392;50.964;6.952;2022-11-23T16:51:47;7.98;-5.27
51305;HTU21D;37392;50.964;6.952;2022-11-23T16:54:14;7.93;-4.58
51305;HTU21D;37392;50.964;6.952;2022-11-23T16:56:49;7.91;-4.02
51305;HTU21D;37392;50.964;6.952;2022-11-23T16:59:15;7.89;-4.08
51305;HTU21D;37392;50.964;6.952;2022-11-23T17:01:43;7.87;-4.75
51305;HTU21D;37392;50.964;6.952;2022-11-23T17:04:13;7.87;-4.72
51305;HTU21D;37392;50.964;6.952;2022-11-23T17:06:39;7.85;-4.83
51305;HTU21D;37392;50.964;6.952;2022-11-23T17:09:06;7.86;-5.10
51305;HTU21D;37392;50.964;6.952;2022-11-23T17:11:33;7.83;-5.50
51305;HTU21D;37392;50.964;6.952;2022-11-23T17:13:58;7.74;-5.92
51305;HTU21D;37392;50.964;6.952;2022-11-23T17:16:24;7.70;-5.70
51305;HTU21D;37392;50.964;6.952;2022-11-23T17:18:50;7.63;-5.21
51305;HTU21D;37392;50.964;6.952;2022-11-23T17:21:16;7.63;-5.33
51305;HTU21D;37392;50.964;6.952;2022-11-23T17:23:41;7.59;-5.29
51305;HTU21D;37392;50.964;6.952;2022-11-23T17:28:54;7.57;-3.97
51305;HTU21D;37392;50.964;6.952;2022-11-23T17:31:20;7.57;-4.02
51305;HTU21D;37392;50.964;6.952;2022-11-23T17:33:45;7.56;-3.81
51305;HTU21D;37392;50.964;6.952;2022-11-23T17:36:11;7.55;-4.06
51305;HTU21D;37392;50.964;6.952;2022-11-23T17:38:39;7.53;-3.94
51305;HTU21D;37392;50.964;6.952;2022-11-23T17:41:08;7.54;-3.83
51305;HTU21D;37392;50.964;6.952;2022-11-23T17:43:34;7.57;-3.66
51305;HTU21D;37392;50.964;6.952;2022-11-23T17:46:03;7.56;-3.43
51305;HTU21D;37392;50.964;6.952;2022-11-23T17:48:28;7.58;-3.21
51305;HTU21D;37392;50.964;6.952;2022-11-23T17:50:54;7.61;-2.98
51305;HTU21D;37392;50.964;6.952;2022-11-23T17:53:19;7.59;-2.87
51305;HTU21D;37392;50.964;6.952;2022-11-23T17:55:45;7.59;-2.79
51305;HTU21D;37392;50.964;6.952;2022-11-23T17:58:10;7.59;-2.83
51305;HTU21D;37392;50.964;6.952;2022-11-23T18:00:36;7.61;-2.93
51305;HTU21D;37392;50.964;6.952;2022-11-23T18:03:02;7.59;-3.11
51305;HTU21D;37392;50.964;6.952;2022-11-23T18:05:27;7.60;-2.99
51305;HTU21D;37392;50.964;6.952;2022-11-23T18:07:54;7.61;-2.93